METAR stanice u blizini

 

LYBE - Beograd / Surčin, Srbija
Ažurirano: 16/09/2019 06:00
Vedro
Vedro
 Pravac vetra J
Vetar: J 7 km/h
Temperatura: 14°C
Tačka rose: 11°C
Vlažnost: 82%
Pritisak: 1020 hPa
Pregled: Vedro
Vidljivost: greater than 10 km
2019/09/16 04:00 LYBE 160400Z 19004KT CAVOK 14/11 Q1020 NOSIG
LYBT - Beograd / Batajnica, Srbija
Ažurirano: 16/09/2019 06:00
Shallow fog, Delimično oblačno
Shallow fog, Delimično oblačno
 Pravac vetra SZ
Vetar: SZ 4 km/h
Temperatura: 10°C
Tačka rose: 10°C
Vlažnost: 100%
Pritisak: 1020 hPa
Pregled: Shallow Fog
Oblaci: Partly Cloudy
Vidljivost: 10 km
2019/09/16 04:00 LYBT 160400Z 31002KT 9999 MIFG NSC 10/10 Q1020 NOSIG
LYVR - Vršac, Srbija
Ažurirano: 16/09/2019 06:00
Vedro
Vedro
 Pravac vetra SSI
Vetar: SSI 4 km/h
Temperatura: 8°C
Tačka rose: 7°C
Vlažnost: 93%
Pritisak: 1020 hPa
Pregled: Vedro
Vidljivost: greater than 10 km
2019/09/16 04:00 LYVR 160400Z 03002KT CAVOK 08/07 Q1020 NOSIG
 
LYKV - Lađevci, Srbija
Ažurirano: 16/09/2019 06:00
Vedro
Vedro
 Pravac vetra varies
Vetar: varies 2 km/h
Temperatura: 8°C
Tačka rose: 8°C
Vlažnost: 100%
Pritisak: 1021 hPa
Pregled: Vedro
Vidljivost: greater than 10 km
2019/09/16 04:00 LYKV 160400Z VRB01KT CAVOK 08/08 Q1021 NOSIG
LYNI - Niš, Srbija
Ažurirano: 16/09/2019 06:00
Vedro
Vedro
 Pravac vetra JI
Vetar: JI 4 km/h
Temperatura: 11°C
Tačka rose: 9°C
Vlažnost: 88%
Pritisak: 1021 hPa
Pregled: Vedro
Vidljivost: greater than 10 km
2019/09/16 04:00 LYNI 160400Z 14002KT CAVOK 11/09 Q1021 NOSIG
BKPR - Priština, Srbija
Ažurirano: 16/09/2019 06:00
Few Clouds
Few Clouds
 Pravac vetra calm
Vetar: Tišina
Temperatura: 9°C
Tačka rose: 6°C
Vlažnost: 82%
Pritisak: 1022 hPa
Oblaci: Few Clouds
Vidljivost: 10 km
Cloud details: Few Clouds 30 m
2019/09/16 04:00 BKPR 160400Z 00000KT 9999 FEW001 09/06 Q1022 TEMPO 3000 BR
 
LHPP - Pecs / Pogany, Hungary
Ažurirano: 15/09/2019 18:45
NOT Current
Vedro
Vedro
 Pravac vetra J
Vetar: J 4 km/h
Temperatura: 23°C
Tačka rose: 12°C
Vlažnost: 50%
Pritisak: 1022 hPa
Pregled: Vedro
Vidljivost: greater than 10 km
2019/09/15 16:45 LHPP 151645Z 19002KT CAVOK 23/12 Q1022
LHUD - Szeged, Hungary
Ažurirano: 04/07/2019 01:45
NOT Current
Vedro
Vedro
 Pravac vetra S
Vetar: S 7 km/h
Temperatura: 18°C
Tačka rose: 13°C
Vlažnost: 73%
Pritisak: 1019 hPa
Pregled: Vedro
Vidljivost: greater than 10 km
2019/07/03 23:45 LHUD 032345Z 35004KT CAVOK 18/13 Q1019
LRTR - Timisoara, Romania
Ažurirano: 16/09/2019 05:30
Vedro
Vedro
 Pravac vetra I
Vetar: I 9 km/h
Temperatura: 10°C
Osećaj hladnoće: 9°C
Tačka rose: 9°C
Vlažnost: 94%
Pritisak: 1020 hPa
Pregled: Vedro
Vidljivost: greater than 10 km
2019/09/16 03:30 LRTR 160330Z 10005KT CAVOK 10/09 Q1020
 
LRCV - Craiova, Romania
Ažurirano: 16/09/2019 05:30
Vedro
Vedro
 Pravac vetra varies
Vetar: varies 2 km/h
Temperatura: 10°C
Tačka rose: 7°C
Vlažnost: 82%
Pritisak: 1019 hPa
Oblaci: Vedro
Vidljivost: 10 km
2019/09/16 03:30 LRCV 160330Z AUTO VRB01KT 9999 NCD 10/07 Q1019
LBSF - Sofia, Bulgaria
Ažurirano: 16/09/2019 06:00
Vedro
Vedro
 Pravac vetra SSZ
Vetar: SSZ 6 km/h
Temperatura: 12°C
Tačka rose: 9°C
Vlažnost: 82%
Pritisak: 1022 hPa
Pregled: Vedro
Vidljivost: greater than 10 km
2019/09/16 04:00 LBSF 160400Z 34003KT CAVOK 12/09 Q1022 NOSIG
LWSK - Skoplje, Makedonija
Ažurirano: 16/09/2019 06:00
Vedro
Vedro
 Pravac vetra JJI
Vetar: JJI 4 km/h
Temperatura: 11°C
Tačka rose: 9°C
Vlažnost: 88%
Pritisak: 1021 hPa
Pregled: Vedro
Vidljivost: greater than 10 km
2019/09/16 04:00 LWSK 160400Z 15002KT CAVOK 11/09 Q1021 NOSIG
 
LYPG - Podgorica, Crna Gora
Ažurirano: 16/09/2019 06:00
Vedro
Vedro
 Pravac vetra ZSZ
Vetar: ZSZ 7 km/h
Temperatura: 17°C
Tačka rose: 11°C
Vlažnost: 68%
Pritisak: 1019 hPa
Pregled: Vedro
Vidljivost: greater than 10 km
2019/09/16 04:00 LYPG 160400Z 30004KT CAVOK 17/11 Q1019 NOSIG
LQSA - Sarajevo, Bosna i Hercegovina
Ažurirano: 16/09/2019 06:00
Patches of fog, Delimično oblačno
Patches of fog, Delimično oblačno
 Pravac vetra varies
Vetar: varies 4 km/h
Temperatura: 10°C
Tačka rose: 10°C
Vlažnost: 100%
Pritisak: 1023 hPa
Pregled: Patches of Fog
Oblaci: Partly Cloudy
Vidljivost: 2 km
Cloud details: Partly Cloudy 61 m
2019/09/16 04:00 LQSA 160400Z VRB02KT 1500 BCFG SCT002 10/10 Q1023
LDOS - Osijek, Hrvatksa
Ažurirano: 16/09/2019 06:00
Vedro
Vedro
 Pravac vetra JZ
Vetar: JZ 4 km/h
Temperatura: 11°C
Tačka rose: 10°C
Vlažnost: 94%
Pritisak: 1020 hPa
Pregled: Vedro
Vidljivost: greater than 10 km
2019/09/16 04:00 LDOS 160400Z 22002KT CAVOK 11/10 Q1020